Time;durP1;ratioP1;P1;durP2;ratioP2;P2;SDS_P1;SDS_P2;PMS_P1;PMS_P2;Temp;Humidity;BMP_temperature;BMP_pressure;BME280_temperature;BME280_humidity;BME280_pressure;Samples;Min_cycle;Max_cycle;Signal;HPM_P1;HPM_P2
2023/12/20 00:00:11;;;;;;;0.00;0.00;;;;;;;;;;1730687;28;20694;-64
2023/12/20 00:01:03;;;;;;;0.00;0.00;;;;;;;;;;1730914;28;20219;-64
2023/12/20 00:01:54;;;;;;;0.00;0.00;;;;;;;;;;1731326;28;20211;-64
2023/12/20 00:02:46;;;;;;;0.00;0.00;;;;;;;;;;1731193;28;20200;-65
2023/12/20 00:03:38;;;;;;;0.00;0.00;;;;;;;;;;1731002;28;20678;-65
2023/12/20 00:04:29;;;;;;;0.00;0.00;;;;;;;;;;1731948;28;20253;-64
2023/12/20 00:05:21;;;;;;;0.00;0.00;;;;;;;;;;1729379;28;20449;-64
2023/12/20 00:06:12;;;;;;;0.00;0.00;;;;;;;;;;1731665;28;20241;-65
2023/12/20 00:07:03;;;;;;;0.00;0.00;;;;;;;;;;1730772;28;20204;-64
2023/12/20 00:07:55;;;;;;;0.00;0.00;;;;;;;;;;1731324;28;20243;-65
2023/12/20 00:08:48;;;;;;;0.00;0.00;;;;;;;;;;1730917;28;20207;-65
2023/12/20 00:09:39;;;;;;;0.00;0.00;;;;;;;;;;1731283;28;20208;-65
2023/12/20 00:10:31;;;;;;;0.10;0.10;;;;;;;;;;1730134;28;20242;-65
2023/12/20 00:11:22;;;;;;;0.00;0.00;;;;;;;;;;1731372;28;20624;-64
2023/12/20 00:12:14;;;;;;;0.00;0.00;;;;;;;;;;1731019;28;20203;-64
2023/12/20 00:13:06;;;;;;;0.00;0.00;;;;;;;;;;1731456;28;20208;-64
2023/12/20 00:13:57;;;;;;;0.00;0.00;;;;;;;;;;1730641;28;20665;-64
2023/12/20 00:14:49;;;;;;;0.00;0.00;;;;;;;;;;1731735;28;20282;-65
2023/12/20 00:15:40;;;;;;;0.00;0.00;;;;;;;;;;1729269;28;20207;-65
2023/12/20 00:16:31;;;;;;;0.00;0.00;;;;;;;;;;1732120;28;20199;-64
2023/12/20 00:17:23;;;;;;;0.10;0.10;;;;;;;;;;1730735;28;20215;-65
2023/12/20 00:18:14;;;;;;;0.10;0.10;;;;;;;;;;1731136;28;20614;-65
2023/12/20 00:19:05;;;;;;;0.00;0.00;;;;;;;;;;1730941;28;20208;-64
2023/12/20 00:19:57;;;;;;;0.00;0.00;;;;;;;;;;1731296;28;20294;-66
2023/12/20 00:20:48;;;;;;;0.00;0.00;;;;;;;;;;1729182;28;20587;-65
2023/12/20 00:21:40;;;;;;;0.00;0.00;;;;;;;;;;1731371;28;20691;-64
2023/12/20 00:22:31;;;;;;;0.00;0.00;;;;;;;;;;1731763;28;20207;-64
2023/12/20 00:23:23;;;;;;;0.00;0.00;;;;;;;;;;1731414;28;20257;-64
2023/12/20 00:24:16;;;;;;;0.00;0.00;;;;;;;;;;1730837;28;20349;-64
2023/12/20 00:25:07;;;;;;;0.00;0.00;;;;;;;;;;1731309;28;20211;-65
2023/12/20 00:25:59;;;;;;;0.00;0.00;;;;;;;;;;1729927;28;20242;-64
2023/12/20 00:26:50;;;;;;;0.10;0.10;;;;;;;;;;1730992;28;20710;-65
2023/12/20 00:27:42;;;;;;;0.00;0.00;;;;;;;;;;1731232;28;20195;-63
2023/12/20 00:28:34;;;;;;;0.00;0.00;;;;;;;;;;1731055;28;20597;-64
2023/12/20 00:29:25;;;;;;;0.00;0.00;;;;;;;;;;1731243;28;20709;-64
2023/12/20 00:30:16;;;;;;;0.03;0.03;;;;;;;;;;1729684;28;20297;-64
2023/12/20 00:31:07;;;;;;;0.00;0.00;;;;;;;;;;1731474;28;20278;-65
2023/12/20 00:31:58;;;;;;;0.00;0.00;;;;;;;;;;1730680;28;20212;-63
2023/12/20 00:32:58;;;;;;;0.00;0.00;;;;;;;;;;1731064;28;20204;-64
2023/12/20 00:33:50;;;;;;;0.00;0.00;;;;;;;;;;1729752;28;20423;-64
2023/12/20 00:34:41;;;;;;;0.00;0.00;;;;;;;;;;1731342;28;20611;-64
2023/12/20 00:35:32;;;;;;;0.00;0.00;;;;;;;;;;1729970;28;20730;-64
2023/12/20 00:36:24;;;;;;;0.00;0.00;;;;;;;;;;1731263;28;20768;-64
2023/12/20 00:37:16;;;;;;;0.00;0.00;;;;;;;;;;1730777;28;20215;-64
2023/12/20 00:38:08;;;;;;;0.00;0.00;;;;;;;;;;1728893;28;20737;-64
2023/12/20 00:39:00;;;;;;;0.00;0.00;;;;;;;;;;1730726;28;20386;-66
2023/12/20 00:39:53;;;;;;;0.00;0.00;;;;;;;;;;1731665;28;20277;-67
2023/12/20 00:40:44;;;;;;;0.00;0.00;;;;;;;;;;1729505;28;20231;-67
2023/12/20 00:41:36;;;;;;;0.08;0.08;;;;;;;;;;1732928;28;20211;-65
2023/12/20 00:42:27;;;;;;;0.00;0.00;;;;;;;;;;1732096;28;20216;-66
2023/12/20 00:43:19;;;;;;;0.00;0.00;;;;;;;;;;1732668;28;20257;-66
2023/12/20 00:44:10;;;;;;;0.00;0.00;;;;;;;;;;1732237;28;20207;-66
2023/12/20 00:45:01;;;;;;;0.00;0.00;;;;;;;;;;1729977;28;20201;-66
2023/12/20 00:45:53;;;;;;;0.00;0.00;;;;;;;;;;1728380;28;20234;-66
2023/12/20 00:46:44;;;;;;;0.00;0.00;;;;;;;;;;1726687;28;20220;-67
2023/12/20 00:47:35;;;;;;;0.00;0.00;;;;;;;;;;1731511;28;20196;-67
2023/12/20 00:48:28;;;;;;;0.03;0.03;;;;;;;;;;1732131;28;20316;-64
2023/12/20 00:49:19;;;;;;;0.00;0.00;;;;;;;;;;1732242;28;20223;-64
2023/12/20 00:50:11;;;;;;;0.00;0.00;;;;;;;;;;1732160;28;20294;-66
2023/12/20 00:51:03;;;;;;;0.00;0.00;;;;;;;;;;1730161;28;20239;-67
2023/12/20 00:51:55;;;;;;;0.00;0.00;;;;;;;;;;1728119;28;20201;-64
2023/12/20 00:52:46;;;;;;;0.10;0.10;;;;;;;;;;1732559;28;20207;-65
2023/12/20 00:53:38;;;;;;;0.00;0.00;;;;;;;;;;1732186;28;20204;-64
2023/12/20 00:54:30;;;;;;;0.00;0.00;;;;;;;;;;1727201;28;20594;-64
2023/12/20 00:55:23;;;;;;;0.10;0.10;;;;;;;;;;1730299;28;20210;-65
2023/12/20 00:56:14;;;;;;;0.00;0.00;;;;;;;;;;1732560;28;20245;-64
2023/12/20 00:57:05;;;;;;;0.00;0.00;;;;;;;;;;1731709;28;20778;-64
2023/12/20 00:57:56;;;;;;;0.00;0.00;;;;;;;;;;1732564;28;20633;-64
2023/12/20 00:58:48;;;;;;;0.03;0.03;;;;;;;;;;1731908;28;20249;-64
2023/12/20 00:59:39;;;;;;;0.00;0.00;;;;;;;;;;1732432;28;20203;-62
2023/12/20 01:00:30;;;;;;;0.00;0.00;;;;;;;;;;1731819;28;20262;-65
2023/12/20 01:01:23;;;;;;;0.05;0.05;;;;;;;;;;1733505;28;20306;-64
2023/12/20 01:02:14;;;;;;;0.00;0.00;;;;;;;;;;1732177;28;20269;-63
2023/12/20 01:03:05;;;;;;;0.00;0.00;;;;;;;;;;1732444;28;20218;-63
2023/12/20 01:03:57;;;;;;;0.00;0.00;;;;;;;;;;1730442;28;20555;-63
2023/12/20 01:04:48;;;;;;;0.00;0.00;;;;;;;;;;1732597;28;20235;-64
2023/12/20 01:05:39;;;;;;;0.10;0.10;;;;;;;;;;1730896;28;20245;-64
2023/12/20 01:06:31;;;;;;;0.00;0.00;;;;;;;;;;1726257;28;20208;-64
2023/12/20 01:07:22;;;;;;;0.00;0.00;;;;;;;;;;1731594;28;20637;-64
2023/12/20 01:08:13;;;;;;;0.00;0.00;;;;;;;;;;1732301;28;20227;-63
2023/12/20 01:09:05;;;;;;;0.00;0.00;;;;;;;;;;1731954;28;20656;-63
2023/12/20 01:09:56;;;;;;;0.05;0.05;;;;;;;;;;1732541;28;20265;-63
2023/12/20 01:10:48;;;;;;;0.00;0.00;;;;;;;;;;1730881;28;20227;-64
2023/12/20 01:11:40;;;;;;;0.00;0.00;;;;;;;;;;1732589;28;20206;-64
2023/12/20 01:12:31;;;;;;;0.00;0.00;;;;;;;;;;1732256;28;20269;-63
2023/12/20 01:13:22;;;;;;;0.00;0.00;;;;;;;;;;1732388;28;20262;-64
2023/12/20 01:14:14;;;;;;;0.00;0.00;;;;;;;;;;1731937;28;20322;-64
2023/12/20 01:15:06;;;;;;;0.00;0.00;;;;;;;;;;1732286;28;20708;-63
2023/12/20 01:15:57;;;;;;;0.05;0.05;;;;;;;;;;1730892;28;20235;-63
2023/12/20 01:16:49;;;;;;;0.00;0.00;;;;;;;;;;1732201;28;20690;-63
2023/12/20 01:17:40;;;;;;;0.00;0.00;;;;;;;;;;1731498;28;20212;-63
2023/12/20 01:18:34;;;;;;;0.00;0.00;;;;;;;;;;1731927;28;20223;-63
2023/12/20 01:19:26;;;;;;;0.00;0.00;;;;;;;;;;1732097;28;20211;-64
2023/12/20 01:20:19;;;;;;;0.08;0.08;;;;;;;;;;1730519;28;20227;-63
2023/12/20 01:21:10;;;;;;;0.00;0.00;;;;;;;;;;1732512;28;20215;-63
2023/12/20 01:22:03;;;;;;;0.00;0.00;;;;;;;;;;1731772;28;20204;-64
2023/12/20 01:22:54;;;;;;;0.00;0.00;;;;;;;;;;1732715;28;20303;-64
2023/12/20 01:23:45;;;;;;;0.10;0.10;;;;;;;;;;1731703;28;20203;-64
2023/12/20 01:24:37;;;;;;;0.00;0.00;;;;;;;;;;1732610;28;20678;-64
2023/12/20 01:25:28;;;;;;;0.00;0.00;;;;;;;;;;1730893;28;20695;-63
2023/12/20 01:26:21;;;;;;;0.10;0.10;;;;;;;;;;1732387;28;20305;-63
2023/12/20 01:27:12;;;;;;;0.00;0.00;;;;;;;;;;1731728;28;20207;-63
2023/12/20 01:28:03;;;;;;;0.00;0.00;;;;;;;;;;1732004;28;20219;-63
2023/12/20 01:28:55;;;;;;;0.00;0.00;;;;;;;;;;1731556;28;20546;-63
2023/12/20 01:29:46;;;;;;;0.00;0.00;;;;;;;;;;1732415;28;20911;-63
2023/12/20 01:30:38;;;;;;;0.00;0.00;;;;;;;;;;1730805;28;20231;-64
2023/12/20 01:31:29;;;;;;;0.00;0.00;;;;;;;;;;1732553;28;20263;-63
2023/12/20 01:32:20;;;;;;;0.00;0.00;;;;;;;;;;1731495;28;20208;-63
2023/12/20 01:33:12;;;;;;;0.00;0.00;;;;;;;;;;1731995;28;20203;-64
2023/12/20 01:34:03;;;;;;;0.10;0.10;;;;;;;;;;1730708;28;20282;-64
2023/12/20 01:34:54;;;;;;;0.00;0.00;;;;;;;;;;1732963;28;20200;-64
2023/12/20 01:35:46;;;;;;;0.00;0.00;;;;;;;;;;1730403;28;20234;-63
2023/12/20 01:36:37;;;;;;;0.10;0.10;;;;;;;;;;1732309;28;20733;-63
2023/12/20 01:37:29;;;;;;;0.00;0.00;;;;;;;;;;1732017;28;20208;-63
2023/12/20 01:38:21;;;;;;;0.00;0.00;;;;;;;;;;1732081;28;20265;-63
2023/12/20 01:39:12;;;;;;;0.00;0.00;;;;;;;;;;1731798;28;20663;-63
2023/12/20 01:40:04;;;;;;;0.00;0.00;;;;;;;;;;1731614;28;20608;-63
2023/12/20 01:40:55;;;;;;;0.00;0.00;;;;;;;;;;1730586;28;20243;-63
2023/12/20 01:41:47;;;;;;;0.00;0.00;;;;;;;;;;1732081;28;20896;-64
2023/12/20 01:42:39;;;;;;;0.00;0.00;;;;;;;;;;1732569;28;20583;-63
2023/12/20 01:43:30;;;;;;;0.00;0.00;;;;;;;;;;1731788;28;20215;-63
2023/12/20 01:44:21;;;;;;;0.00;0.00;;;;;;;;;;1732128;28;20200;-65
2023/12/20 01:45:13;;;;;;;0.00;0.00;;;;;;;;;;1730926;28;20207;-65
2023/12/20 01:46:05;;;;;;;0.00;0.00;;;;;;;;;;1731919;28;20223;-64
2023/12/20 01:46:57;;;;;;;0.00;0.00;;;;;;;;;;1731649;28;20196;-64
2023/12/20 01:47:48;;;;;;;0.00;0.00;;;;;;;;;;1729277;28;20269;-63
2023/12/20 01:48:39;;;;;;;0.00;0.00;;;;;;;;;;1732029;28;20250;-63
2023/12/20 01:49:32;;;;;;;0.00;0.00;;;;;;;;;;1732241;28;20225;-63
2023/12/20 01:50:23;;;;;;;0.00;0.00;;;;;;;;;;1730578;28;20280;-62
2023/12/20 01:51:14;;;;;;;0.00;0.00;;;;;;;;;;1732130;28;20224;-63
2023/12/20 01:52:07;;;;;;;0.00;0.00;;;;;;;;;;1731502;28;20204;-64
2023/12/20 01:52:59;;;;;;;0.00;0.00;;;;;;;;;;1732198;28;20211;-63
2023/12/20 01:53:50;;;;;;;0.00;0.00;;;;;;;;;;1731331;28;20246;-63
2023/12/20 01:54:43;;;;;;;0.00;0.00;;;;;;;;;;1728311;28;20228;-64
2023/12/20 01:55:35;;;;;;;0.00;0.00;;;;;;;;;;1729005;28;20277;-63
2023/12/20 01:56:26;;;;;;;0.00;0.00;;;;;;;;;;1731855;28;20203;-63
2023/12/20 01:57:19;;;;;;;0.00;0.00;;;;;;;;;;1731535;28;20215;-63
2023/12/20 01:58:11;;;;;;;0.03;0.03;;;;;;;;;;1731948;28;20235;-63
2023/12/20 01:59:04;;;;;;;0.00;0.00;;;;;;;;;;1731766;28;20204;-63
2023/12/20 01:59:56;;;;;;;0.00;0.00;;;;;;;;;;1731961;28;20260;-63
2023/12/20 02:00:47;;;;;;;0.00;0.00;;;;;;;;;;1730412;28;20687;-63
2023/12/20 02:01:39;;;;;;;0.00;0.00;;;;;;;;;;1732221;28;20277;-64
2023/12/20 02:02:30;;;;;;;0.00;0.00;;;;;;;;;;1731638;28;20216;-63
2023/12/20 02:03:22;;;;;;;0.00;0.00;;;;;;;;;;1732135;28;20211;-63
2023/12/20 02:04:13;;;;;;;0.00;0.00;;;;;;;;;;1731710;28;20832;-63
2023/12/20 02:05:05;;;;;;;0.00;0.00;;;;;;;;;;1731776;28;20208;-63
2023/12/20 02:05:57;;;;;;;0.00;0.00;;;;;;;;;;1730617;28;20936;-64
2023/12/20 02:06:48;;;;;;;0.10;0.10;;;;;;;;;;1731760;28;20257;-63
2023/12/20 02:07:40;;;;;;;0.00;0.00;;;;;;;;;;1732522;28;20195;-63
2023/12/20 02:08:31;;;;;;;0.00;0.00;;;;;;;;;;1731345;28;20274;-63
2023/12/20 02:09:24;;;;;;;0.00;0.00;;;;;;;;;;1731893;28;20211;-63
2023/12/20 02:10:16;;;;;;;0.00;0.00;;;;;;;;;;1730384;28;20216;-65
2023/12/20 02:11:07;;;;;;;0.10;0.10;;;;;;;;;;1732216;28;20212;-63
2023/12/20 02:11:59;;;;;;;0.00;0.00;;;;;;;;;;1731595;28;20211;-63
2023/12/20 02:12:52;;;;;;;0.00;0.00;;;;;;;;;;1732173;28;20258;-63
2023/12/20 02:13:44;;;;;;;0.00;0.00;;;;;;;;;;1732002;28;20724;-63
2023/12/20 02:14:35;;;;;;;0.20;0.20;;;;;;;;;;1730659;28;20259;-63
2023/12/20 02:15:27;;;;;;;0.00;0.00;;;;;;;;;;1731274;28;20306;-63
2023/12/20 02:16:18;;;;;;;0.00;0.00;;;;;;;;;;1731806;28;20211;-64
2023/12/20 02:17:09;;;;;;;0.00;0.00;;;;;;;;;;1731365;28;20265;-63
2023/12/20 02:18:01;;;;;;;0.00;0.00;;;;;;;;;;1731593;28;20200;-63
2023/12/20 02:18:52;;;;;;;0.00;0.00;;;;;;;;;;1730919;28;20261;-63
2023/12/20 02:19:44;;;;;;;0.00;0.00;;;;;;;;;;1732231;28;20204;-62
2023/12/20 02:20:36;;;;;;;0.00;0.00;;;;;;;;;;1730275;28;20869;-63
2023/12/20 02:21:33;;;;;;;0.00;0.00;;;;;;;;;;1731149;28;20207;-63
2023/12/20 02:22:25;;;;;;;0.00;0.00;;;;;;;;;;1730382;28;20215;-63
2023/12/20 02:23:16;;;;;;;0.00;0.00;;;;;;;;;;1731085;28;20613;-64
2023/12/20 02:24:07;;;;;;;0.00;0.00;;;;;;;;;;1731587;28;20208;-63
2023/12/20 02:24:59;;;;;;;0.00;0.00;;;;;;;;;;1731829;28;20204;-63
2023/12/20 02:25:51;;;;;;;0.00;0.00;;;;;;;;;;1730440;28;20246;-63
2023/12/20 02:26:43;;;;;;;0.00;0.00;;;;;;;;;;1732021;28;20199;-63
2023/12/20 02:27:35;;;;;;;0.00;0.00;;;;;;;;;;1731766;28;20272;-64
2023/12/20 02:28:26;;;;;;;0.05;0.05;;;;;;;;;;1731584;28;20773;-64
2023/12/20 02:29:18;;;;;;;0.00;0.00;;;;;;;;;;1731629;28;20212;-64
2023/12/20 02:30:09;;;;;;;0.00;0.00;;;;;;;;;;1731833;28;20553;-65
2023/12/20 02:31:00;;;;;;;0.00;0.00;;;;;;;;;;1730605;28;20274;-65
2023/12/20 02:31:52;;;;;;;0.00;0.00;;;;;;;;;;1731603;28;20207;-65
2023/12/20 02:32:43;;;;;;;0.00;0.00;;;;;;;;;;1732223;28;20436;-64
2023/12/20 02:33:35;;;;;;;0.00;0.00;;;;;;;;;;1730360;28;20253;-64
2023/12/20 02:34:26;;;;;;;0.00;0.00;;;;;;;;;;1731614;28;20639;-64
2023/12/20 02:35:17;;;;;;;0.00;0.00;;;;;;;;;;1731535;28;20559;-64
2023/12/20 02:36:09;;;;;;;0.00;0.00;;;;;;;;;;1731985;28;20300;-64
2023/12/20 02:37:01;;;;;;;0.00;0.00;;;;;;;;;;1731423;28;20265;-64
2023/12/20 02:37:53;;;;;;;0.00;0.00;;;;;;;;;;1732135;28;20210;-64
2023/12/20 02:38:44;;;;;;;0.00;0.00;;;;;;;;;;1730971;28;20249;-65
2023/12/20 02:39:36;;;;;;;0.00;0.00;;;;;;;;;;1731827;28;20307;-66
2023/12/20 02:40:28;;;;;;;0.00;0.00;;;;;;;;;;1729477;28;20222;-66
2023/12/20 02:41:19;;;;;;;0.00;0.00;;;;;;;;;;1732127;28;20702;-66
2023/12/20 02:42:10;;;;;;;0.00;0.00;;;;;;;;;;1731659;28;20251;-64
2023/12/20 02:43:01;;;;;;;0.20;0.20;;;;;;;;;;1732133;28;20315;-64
2023/12/20 02:43:52;;;;;;;0.00;0.00;;;;;;;;;;1725987;28;20203;-65
2023/12/20 02:44:44;;;;;;;0.00;0.00;;;;;;;;;;1726824;28;20196;-64
2023/12/20 02:45:35;;;;;;;0.00;0.00;;;;;;;;;;1727713;28;20239;-64
2023/12/20 02:46:27;;;;;;;0.00;0.00;;;;;;;;;;1726827;28;20207;-64
2023/12/20 02:47:18;;;;;;;0.00;0.00;;;;;;;;;;1728135;28;20243;-66
2023/12/20 02:48:10;;;;;;;0.00;0.00;;;;;;;;;;1730854;28;20228;-66
2023/12/20 02:49:01;;;;;;;0.00;0.00;;;;;;;;;;1730898;28;20549;-66
2023/12/20 02:49:53;;;;;;;0.00;0.00;;;;;;;;;;1732154;28;20617;-66
2023/12/20 02:50:45;;;;;;;0.00;0.00;;;;;;;;;;1730986;28;20231;-66
2023/12/20 02:51:38;;;;;;;0.00;0.00;;;;;;;;;;1732300;28;20659;-66
2023/12/20 02:52:31;;;;;;;0.00;0.00;;;;;;;;;;1731901;28;20208;-65
2023/12/20 02:53:22;;;;;;;0.00;0.00;;;;;;;;;;1732152;28;20211;-65
2023/12/20 02:54:14;;;;;;;0.10;0.10;;;;;;;;;;1730359;28;20203;-64
2023/12/20 02:55:06;;;;;;;0.00;0.00;;;;;;;;;;1729462;28;20618;-64
2023/12/20 02:55:57;;;;;;;0.00;0.00;;;;;;;;;;1730638;28;20297;-66
2023/12/20 02:56:48;;;;;;;0.10;0.10;;;;;;;;;;1731670;28;20204;-64
2023/12/20 02:57:41;;;;;;;0.00;0.00;;;;;;;;;;1732623;28;20202;-66
2023/12/20 02:58:32;;;;;;;0.00;0.00;;;;;;;;;;1731417;28;20208;-65
2023/12/20 02:59:23;;;;;;;0.00;0.00;;;;;;;;;;1731858;28;20196;-65
2023/12/20 03:00:15;;;;;;;0.00;0.00;;;;;;;;;;1731317;28;20203;-65
2023/12/20 03:01:06;;;;;;;0.03;0.03;;;;;;;;;;1730925;28;20240;-64
2023/12/20 03:01:57;;;;;;;0.10;0.10;;;;;;;;;;1731504;28;20261;-64
2023/12/20 03:02:49;;;;;;;0.00;0.00;;;;;;;;;;1729096;28;20199;-63
2023/12/20 03:03:40;;;;;;;0.00;0.00;;;;;;;;;;1730838;28;20203;-64
2023/12/20 03:04:31;;;;;;;0.00;0.00;;;;;;;;;;1731695;28;20192;-63
2023/12/20 03:05:23;;;;;;;0.00;0.00;;;;;;;;;;1729022;28;20203;-64
2023/12/20 03:06:17;;;;;;;0.00;0.00;;;;;;;;;;1728259;28;20816;-64
2023/12/20 03:07:08;;;;;;;0.00;0.00;;;;;;;;;;1728934;28;20209;-63
2023/12/20 03:08:01;;;;;;;0.00;0.00;;;;;;;;;;1728069;28;20204;-64
2023/12/20 03:08:52;;;;;;;0.00;0.00;;;;;;;;;;1727925;28;20223;-64
2023/12/20 03:09:43;;;;;;;0.00;0.00;;;;;;;;;;1731872;28;20207;-64
2023/12/20 03:10:35;;;;;;;0.00;0.00;;;;;;;;;;1727869;28;20865;-66
2023/12/20 03:11:27;;;;;;;0.00;0.00;;;;;;;;;;1724829;28;20238;-66
2023/12/20 03:12:18;;;;;;;0.00;0.00;;;;;;;;;;1729945;28;20206;-66
2023/12/20 03:13:10;;;;;;;0.00;0.00;;;;;;;;;;1726796;28;21930;-66
2023/12/20 03:14:01;;;;;;;0.00;0.00;;;;;;;;;;1729428;28;20211;-66
2023/12/20 03:14:52;;;;;;;0.00;0.00;;;;;;;;;;1731165;28;20294;-66
2023/12/20 03:15:44;;;;;;;0.00;0.00;;;;;;;;;;1729674;28;20313;-67
2023/12/20 03:16:35;;;;;;;0.00;0.00;;;;;;;;;;1725352;28;20212;-68
2023/12/20 03:17:26;;;;;;;0.10;0.10;;;;;;;;;;1728405;28;20736;-67
2023/12/20 03:18:18;;;;;;;0.00;0.00;;;;;;;;;;1726695;28;20302;-65
2023/12/20 03:19:09;;;;;;;0.00;0.00;;;;;;;;;;1730188;28;20212;-66
2023/12/20 03:20:01;;;;;;;0.00;0.00;;;;;;;;;;1730778;28;20705;-66
2023/12/20 03:20:52;;;;;;;0.00;0.00;;;;;;;;;;1735622;28;20234;-66
2023/12/20 03:21:43;;;;;;;0.00;0.00;;;;;;;;;;1737593;28;20252;-66
2023/12/20 03:22:36;;;;;;;0.10;0.10;;;;;;;;;;1734758;28;20248;-66
2023/12/20 03:23:28;;;;;;;0.00;0.00;;;;;;;;;;1734691;28;20208;-66
2023/12/20 03:24:20;;;;;;;0.00;0.00;;;;;;;;;;1736974;28;20214;-69
2023/12/20 03:25:11;;;;;;;0.00;0.00;;;;;;;;;;1736394;28;20255;-66
2023/12/20 03:26:03;;;;;;;0.00;0.00;;;;;;;;;;1730002;28;20255;-66
2023/12/20 03:26:55;;;;;;;0.00;0.00;;;;;;;;;;1730994;28;20663;-66
2023/12/20 03:27:46;;;;;;;0.00;0.00;;;;;;;;;;1731818;28;20211;-66
2023/12/20 03:28:37;;;;;;;0.00;0.00;;;;;;;;;;1731081;28;20212;-66
2023/12/20 03:29:29;;;;;;;0.00;0.00;;;;;;;;;;1731455;28;20266;-67
2023/12/20 03:30:20;;;;;;;0.10;0.10;;;;;;;;;;1728495;28;20631;-66
2023/12/20 03:31:12;;;;;;;0.00;0.00;;;;;;;;;;1731019;28;20238;-66
2023/12/20 03:32:03;;;;;;;0.00;0.00;;;;;;;;;;1731054;28;20203;-66
2023/12/20 03:32:54;;;;;;;0.00;0.00;;;;;;;;;;1731460;28;20238;-66
2023/12/20 03:33:46;;;;;;;0.00;0.00;;;;;;;;;;1730582;28;21299;-66
2023/12/20 03:34:37;;;;;;;0.00;0.00;;;;;;;;;;1731827;28;20761;-66
2023/12/20 03:35:28;;;;;;;0.08;0.08;;;;;;;;;;1731416;28;20795;-66
2023/12/20 03:36:20;;;;;;;0.00;0.00;;;;;;;;;;1731542;28;20206;-66
2023/12/20 03:37:11;;;;;;;0.00;0.00;;;;;;;;;;1732096;28;20208;-67
2023/12/20 03:38:02;;;;;;;0.10;0.10;;;;;;;;;;1733781;28;20651;-67
2023/12/20 03:38:56;;;;;;;0.00;0.00;;;;;;;;;;1733695;28;20200;-65
2023/12/20 03:39:47;;;;;;;0.00;0.00;;;;;;;;;;1732495;28;20199;-67
2023/12/20 03:40:39;;;;;;;0.00;0.00;;;;;;;;;;1731252;28;20230;-67
2023/12/20 03:41:30;;;;;;;0.00;0.00;;;;;;;;;;1731508;28;20215;-66
2023/12/20 03:42:22;;;;;;;0.05;0.05;;;;;;;;;;1731023;28;20207;-66
2023/12/20 03:43:13;;;;;;;0.00;0.00;;;;;;;;;;1731784;28;20655;-66
2023/12/20 03:44:05;;;;;;;0.00;0.00;;;;;;;;;;1730912;28;20540;-66
2023/12/20 03:44:56;;;;;;;0.00;0.00;;;;;;;;;;1731345;28;20670;-66
2023/12/20 03:45:47;;;;;;;0.00;0.00;;;;;;;;;;1729143;28;20227;-66
2023/12/20 03:46:39;;;;;;;0.00;0.00;;;;;;;;;;1731096;28;20673;-66
2023/12/20 03:47:30;;;;;;;0.00;0.00;;;;;;;;;;1730631;28;20207;-66
2023/12/20 03:48:22;;;;;;;0.00;0.00;;;;;;;;;;1728460;28;20220;-66
2023/12/20 03:49:13;;;;;;;0.00;0.00;;;;;;;;;;1730828;28;20216;-66
2023/12/20 03:50:06;;;;;;;0.00;0.00;;;;;;;;;;1731163;28;20322;-67
2023/12/20 03:50:57;;;;;;;0.08;0.08;;;;;;;;;;1730136;28;20766;-65
2023/12/20 03:51:48;;;;;;;0.00;0.00;;;;;;;;;;1731695;28;20223;-66
2023/12/20 03:52:40;;;;;;;0.00;0.00;;;;;;;;;;1731350;28;20217;-67
2023/12/20 03:53:31;;;;;;;0.00;0.00;;;;;;;;;;1731323;28;20264;-66
2023/12/20 03:54:23;;;;;;;0.00;0.00;;;;;;;;;;1730664;28;20207;-66
2023/12/20 03:55:15;;;;;;;0.00;0.00;;;;;;;;;;1730017;28;20207;-66
2023/12/20 03:56:07;;;;;;;0.00;0.00;;;;;;;;;;1731432;28;20724;-66
2023/12/20 03:56:58;;;;;;;0.00;0.00;;;;;;;;;;1730634;28;20216;-66
2023/12/20 03:57:50;;;;;;;0.00;0.00;;;;;;;;;;1731724;28;20772;-64
2023/12/20 03:58:41;;;;;;;0.00;0.00;;;;;;;;;;1730170;28;20265;-66
2023/12/20 03:59:35;;;;;;;0.00;0.00;;;;;;;;;;1731561;28;20211;-66
2023/12/20 04:00:27;;;;;;;0.00;0.00;;;;;;;;;;1727386;28;20346;-64
2023/12/20 04:01:18;;;;;;;0.00;0.00;;;;;;;;;;1731278;28;20237;-64
2023/12/20 04:02:09;;;;;;;0.30;0.30;;;;;;;;;;1730942;28;20215;-66
2023/12/20 04:03:01;;;;;;;0.10;0.10;;;;;;;;;;1728528;28;20323;-65
2023/12/20 04:03:52;;;;;;;0.00;0.00;;;;;;;;;;1730918;28;20654;-66
2023/12/20 04:04:43;;;;;;;0.00;0.00;;;;;;;;;;1730200;28;20285;-66
2023/12/20 04:05:35;;;;;;;0.10;0.10;;;;;;;;;;1728458;28;20332;-66
2023/12/20 04:06:26;;;;;;;0.00;0.00;;;;;;;;;;1731414;28;20211;-66
2023/12/20 04:07:17;;;;;;;0.00;0.00;;;;;;;;;;1730649;28;20262;-67
2023/12/20 04:08:09;;;;;;;0.00;0.00;;;;;;;;;;1731349;28;20316;-66
2023/12/20 04:09:00;;;;;;;0.00;0.00;;;;;;;;;;1730926;28;20264;-66
2023/12/20 04:09:53;;;;;;;0.10;0.10;;;;;;;;;;1731993;28;20204;-66
2023/12/20 04:10:44;;;;;;;0.17;0.17;;;;;;;;;;1729551;28;20235;-66
2023/12/20 04:11:35;;;;;;;0.10;0.10;;;;;;;;;;1731610;28;20207;-66
2023/12/20 04:12:26;;;;;;;0.10;0.10;;;;;;;;;;1730983;28;20204;-66
2023/12/20 04:13:18;;;;;;;0.00;0.00;;;;;;;;;;1731165;28;20204;-67
2023/12/20 04:14:10;;;;;;;0.03;0.03;;;;;;;;;;1730723;28;20678;-66
2023/12/20 04:15:01;;;;;;;0.03;0.03;;;;;;;;;;1728281;28;20255;-66
2023/12/20 04:15:53;;;;;;;0.00;0.00;;;;;;;;;;1734692;28;20230;-66
2023/12/20 04:16:44;;;;;;;0.00;0.00;;;;;;;;;;1739359;28;20325;-66
2023/12/20 04:17:35;;;;;;;0.10;0.10;;;;;;;;;;1738838;28;20207;-66
2023/12/20 04:18:28;;;;;;;0.00;0.00;;;;;;;;;;1739349;28;20701;-66
2023/12/20 04:19:19;;;;;;;0.00;0.00;;;;;;;;;;1739277;28;20206;-66
2023/12/20 04:20:10;;;;;;;0.00;0.00;;;;;;;;;;1739313;28;20290;-65
2023/12/20 04:21:02;;;;;;;0.00;0.00;;;;;;;;;;1731492;28;20312;-64
2023/12/20 04:21:53;;;;;;;0.00;0.00;;;;;;;;;;1732724;28;20231;-64
2023/12/20 04:22:45;;;;;;;0.00;0.00;;;;;;;;;;1731540;28;20203;-66
2023/12/20 04:23:36;;;;;;;0.00;0.00;;;;;;;;;;1730559;28;20212;-67
2023/12/20 04:24:27;;;;;;;0.00;0.00;;;;;;;;;;1732882;28;20571;-67
2023/12/20 04:25:20;;;;;;;0.00;0.00;;;;;;;;;;1729031;28;21190;-67
2023/12/20 04:26:11;;;;;;;0.10;0.10;;;;;;;;;;1736974;28;20288;-66
2023/12/20 04:27:03;;;;;;;0.00;0.00;;;;;;;;;;1739059;28;20199;-66
2023/12/20 04:27:54;;;;;;;0.00;0.00;;;;;;;;;;1739667;28;20199;-66
2023/12/20 04:28:45;;;;;;;0.00;0.00;;;;;;;;;;1736525;28;20293;-66
2023/12/20 04:29:37;;;;;;;0.00;0.00;;;;;;;;;;1739496;28;20211;-66
2023/12/20 04:30:28;;;;;;;0.00;0.00;;;;;;;;;;1738146;28;20246;-66
2023/12/20 04:31:20;;;;;;;0.00;0.00;;;;;;;;;;1739647;28;20206;-66
2023/12/20 04:32:11;;;;;;;0.10;0.10;;;;;;;;;;1739004;28;20211;-67
2023/12/20 04:33:03;;;;;;;0.10;0.10;;;;;;;;;;1739371;28;20723;-66
2023/12/20 04:33:55;;;;;;;0.00;0.00;;;;;;;;;;1738475;28;20269;-66
2023/12/20 04:34:46;;;;;;;0.00;0.00;;;;;;;;;;1739516;28;20301;-66
2023/12/20 04:35:37;;;;;;;0.20;0.20;;;;;;;;;;1737665;28;20273;-65
2023/12/20 04:36:29;;;;;;;0.00;0.00;;;;;;;;;;1739625;28;20554;-66
2023/12/20 04:37:20;;;;;;;0.00;0.00;;;;;;;;;;1738945;28;20265;-65
2023/12/20 04:38:11;;;;;;;0.00;0.00;;;;;;;;;;1739200;28;20728;-66
2023/12/20 04:39:04;;;;;;;0.00;0.00;;;;;;;;;;1738018;28;20567;-66
2023/12/20 04:39:55;;;;;;;0.00;0.00;;;;;;;;;;1735564;28;20210;-66
2023/12/20 04:40:48;;;;;;;0.00;0.00;;;;;;;;;;1737017;28;20257;-67
2023/12/20 04:41:40;;;;;;;0.00;0.00;;;;;;;;;;1739505;28;20225;-65
2023/12/20 04:42:31;;;;;;;0.00;0.00;;;;;;;;;;1739022;28;20211;-65
2023/12/20 04:43:23;;;;;;;0.00;0.00;;;;;;;;;;1739519;28;20203;-65
2023/12/20 04:44:14;;;;;;;0.00;0.00;;;;;;;;;;1739057;28;20272;-65
2023/12/20 04:45:05;;;;;;;0.00;0.00;;;;;;;;;;1739104;28;20275;-65
2023/12/20 04:45:57;;;;;;;0.08;0.08;;;;;;;;;;1738504;28;20231;-66
2023/12/20 04:46:48;;;;;;;0.00;0.00;;;;;;;;;;1734043;28;20620;-66
2023/12/20 04:47:39;;;;;;;0.00;0.00;;;;;;;;;;1739131;28;20209;-67
2023/12/20 04:48:31;;;;;;;0.00;0.00;;;;;;;;;;1738712;28;20219;-67
2023/12/20 04:49:22;;;;;;;0.15;0.15;;;;;;;;;;1739027;28;20233;-66
2023/12/20 04:50:14;;;;;;;0.00;0.00;;;;;;;;;;1738492;28;20226;-66
2023/12/20 04:51:06;;;;;;;0.00;0.00;;;;;;;;;;1738841;28;20277;-65
2023/12/20 04:51:57;;;;;;;0.10;0.10;;;;;;;;;;1739137;28;20290;-65
2023/12/20 04:52:49;;;;;;;0.00;0.00;;;;;;;;;;1739462;28;20325;-66
2023/12/20 04:53:40;;;;;;;0.10;0.10;;;;;;;;;;1739073;28;20292;-66
2023/12/20 04:54:31;;;;;;;0.00;0.00;;;;;;;;;;1735827;28;20208;-66
2023/12/20 04:55:23;;;;;;;0.00;0.00;;;;;;;;;;1737272;28;20664;-66
2023/12/20 04:56:16;;;;;;;0.00;0.00;;;;;;;;;;1739406;28;20263;-67
2023/12/20 04:57:07;;;;;;;0.00;0.00;;;;;;;;;;1738636;28;20249;-66
2023/12/20 04:57:59;;;;;;;0.00;0.00;;;;;;;;;;1739469;28;20673;-65
2023/12/20 04:58:50;;;;;;;0.00;0.00;;;;;;;;;;1736525;28;20199;-65
2023/12/20 04:59:42;;;;;;;0.10;0.10;;;;;;;;;;1739302;28;20203;-65
2023/12/20 05:00:33;;;;;;;0.00;0.00;;;;;;;;;;1737878;28;20605;-65
2023/12/20 05:01:24;;;;;;;0.00;0.00;;;;;;;;;;1739190;28;20326;-66
2023/12/20 05:02:15;;;;;;;0.00;0.00;;;;;;;;;;1739043;28;20226;-65
2023/12/20 05:03:06;;;;;;;0.03;0.03;;;;;;;;;;1729318;28;20207;-66
2023/12/20 05:03:58;;;;;;;0.00;0.00;;;;;;;;;;1734035;28;20199;-65
2023/12/20 05:04:49;;;;;;;0.00;0.00;;;;;;;;;;1732624;28;20226;-65
2023/12/20 05:05:40;;;;;;;0.00;0.00;;;;;;;;;;1730653;28;20730;-64
2023/12/20 05:06:33;;;;;;;0.00;0.00;;;;;;;;;;1728517;28;20556;-64
2023/12/20 05:07:24;;;;;;;0.00;0.00;;;;;;;;;;1731457;28;20211;-65
2023/12/20 05:08:16;;;;;;;0.00;0.00;;;;;;;;;;1728968;28;20223;-65
2023/12/20 05:09:07;;;;;;;0.00;0.00;;;;;;;;;;1732076;28;20219;-66